Time;durP1;ratioP1;P1;durP2;ratioP2;P2;SDS_P1;SDS_P2;PMS_P1;PMS_P2;Temp;Humidity;BMP_temperature;BMP_pressure;BME280_temperature;BME280_humidity;BME280_pressure;Samples;Min_cycle;Max_cycle;Signal;HPM_P1;HPM_P2
2021/09/10 00:01:03;;;;;;;11.63;5.20;;;;;;;13.41;61.22;101708.27;1764627;81;20984;-84
2021/09/10 00:03:29;;;;;;;10.48;4.90;;;;;;;13.39;61.17;101710.14;1765028;81;20897;-84
2021/09/10 00:05:57;;;;;;;27.40;6.85;;;;;;;13.36;61.25;101705.13;1764932;81;21480;-89
2021/09/10 00:08:24;;;;;;;17.67;5.62;;;;;;;13.35;61.28;101707.34;1745452;81;20987;-87
2021/09/10 00:10:53;;;;;;;12.90;5.20;;;;;;;13.35;61.08;101707.34;1764937;81;20928;-87
2021/09/10 00:13:19;;;;;;;14.63;4.90;;;;;;;13.34;61.02;101702.59;1764565;81;21591;-85
2021/09/10 00:15:47;;;;;;;10.03;4.60;;;;;;;13.32;60.68;101700.55;1764770;81;20983;-85
2021/09/10 00:18:15;;;;;;;10.68;4.62;;;;;;;13.29;60.43;101699.90;1764767;81;21952;-86
2021/09/10 00:20:43;;;;;;;17.07;4.75;;;;;;;13.29;60.36;101700.74;1764659;81;21520;-87
2021/09/10 00:23:10;;;;;;;10.80;4.80;;;;;;;13.29;60.29;101699.44;1764827;81;20925;-85
2021/09/10 00:25:38;;;;;;;10.18;3.87;;;;;;;13.30;60.02;101699.83;1764649;81;21500;-85
2021/09/10 00:28:05;;;;;;;11.97;3.92;;;;;;;13.30;59.76;101693.77;1764923;81;21408;-85
2021/09/10 00:30:31;;;;;;;11.08;3.60;;;;;;;13.29;59.48;101698.14;1764825;81;21106;-87
2021/09/10 00:32:58;;;;;;;8.33;3.67;;;;;;;13.28;59.21;101699.06;1764907;81;21018;-86
2021/09/10 00:35:25;;;;;;;8.00;3.83;;;;;;;13.27;59.16;101700.01;1764774;81;21281;-86
2021/09/10 00:37:51;;;;;;;7.40;3.12;;;;;;;13.27;58.92;101700.01;1764944;81;20956;-86
2021/09/10 00:40:18;;;;;;;7.40;3.55;;;;;;;13.27;58.76;101704.37;1764653;81;21000;-85
2021/09/10 00:42:46;;;;;;;8.90;3.70;;;;;;;13.26;58.73;101706.14;1765462;80;21533;-86
2021/09/10 00:45:13;;;;;;;12.13;4.40;;;;;;;13.25;58.84;101701.39;1764676;81;20885;-86
2021/09/10 00:47:41;;;;;;;7.20;3.77;;;;;;;13.23;58.82;101699.36;1764725;81;21086;-86
2021/09/10 00:50:09;;;;;;;10.15;3.95;;;;;;;13.21;58.64;101702.96;1764827;81;21507;-86
2021/09/10 00:52:36;;;;;;;7.40;3.87;;;;;;;13.19;58.45;101703.07;1764817;81;21538;-86
2021/09/10 00:55:04;;;;;;;7.17;3.45;;;;;;;13.19;58.24;101703.53;1745432;81;21752;-86
2021/09/10 00:57:31;;;;;;;7.78;4.28;;;;;;;13.18;58.08;101701.84;1765086;81;20885;-86
2021/09/10 00:59:58;;;;;;;10.43;4.08;;;;;;;13.16;57.98;101701.95;1764912;81;20967;-84
2021/09/10 01:02:25;;;;;;;7.78;3.85;;;;;;;13.14;57.84;101697.31;1764516;81;21487;-84
2021/09/10 01:04:52;;;;;;;8.65;4.25;;;;;;;13.13;57.93;101699.99;1764838;81;20849;-85
2021/09/10 01:07:20;;;;;;;11.03;4.60;;;;;;;13.13;57.83;101699.99;1764633;81;21151;-84
2021/09/10 01:09:48;;;;;;;11.05;4.47;;;;;;;13.11;58.18;101702.67;1764778;81;21028;-84
2021/09/10 01:12:14;;;;;;;9.73;4.10;;;;;;;13.14;58.23;101700.38;1764735;81;20885;-83
2021/09/10 01:14:41;;;;;;;11.95;3.90;;;;;;;13.12;58.49;101695.23;1764800;81;21030;-84
2021/09/10 01:17:08;;;;;;;11.03;4.37;;;;;;;13.14;58.62;101697.77;1745286;81;20976;-84
2021/09/10 01:19:36;;;;;;;8.38;3.95;;;;;;;13.14;58.80;101701.22;1764741;81;21920;-85
2021/09/10 01:22:05;;;;;;;8.83;4.65;;;;;;;13.16;58.84;101698.50;1764638;81;20924;-84
2021/09/10 01:24:39;;;;;;;10.55;4.30;;;;;;;13.17;58.77;101701.49;1764794;81;20984;-85
2021/09/10 01:27:07;;;;;;;6.78;3.72;;;;;;;13.17;58.73;101703.64;1764673;81;20956;-83
2021/09/10 01:29:35;;;;;;;8.90;3.37;;;;;;;13.17;58.34;101710.16;1764773;81;20965;-85
2021/09/10 01:32:02;;;;;;;8.63;3.72;;;;;;;13.15;58.40;101701.57;1764755;81;21118;-84
2021/09/10 01:34:29;;;;;;;8.75;3.90;;;;;;;13.16;58.62;101701.11;1764713;81;21562;-84
2021/09/10 01:36:57;;;;;;;11.65;4.03;;;;;;;13.15;58.71;101702.88;1764701;81;20940;-84
2021/09/10 01:39:24;;;;;;;13.35;4.17;;;;;;;13.16;58.82;101705.86;1764775;81;21020;-84
2021/09/10 01:41:50;;;;;;;10.28;3.95;;;;;;;13.14;58.37;101706.89;1765576;81;21000;-83
2021/09/10 01:44:17;;;;;;;5.83;3.58;;;;;;;13.13;58.49;101709.95;1769514;81;21155;-84
2021/09/10 01:46:44;;;;;;;10.82;4.17;;;;;;;13.12;58.59;101703.52;1769731;81;20968;-84
2021/09/10 01:49:11;;;;;;;8.60;4.22;;;;;;;13.13;58.42;101705.20;1769482;81;20989;-83
2021/09/10 01:51:38;;;;;;;11.08;4.08;;;;;;;13.10;57.93;101705.39;1769480;81;21047;-84
2021/09/10 01:54:05;;;;;;;8.38;3.50;;;;;;;13.09;57.75;101703.70;1769556;81;21047;-84
2021/09/10 01:56:34;;;;;;;8.25;4.30;;;;;;;13.06;57.39;101697.34;1769404;81;22570;-84
2021/09/10 01:59:01;;;;;;;7.87;3.67;;;;;;;13.03;57.24;101698.37;1769510;81;21436;-84
2021/09/10 02:01:30;;;;;;;10.60;4.42;;;;;;;13.02;57.35;101697.98;1769329;81;20952;-84
2021/09/10 02:03:58;;;;;;;8.78;4.47;;;;;;;12.99;57.26;101692.95;1769486;81;20988;-84
2021/09/10 02:06:25;;;;;;;7.62;3.83;;;;;;;12.96;57.33;101686.63;1769595;81;20975;-85
2021/09/10 02:08:53;;;;;;;7.10;3.87;;;;;;;12.93;57.55;101684.66;1769800;81;20998;-85
2021/09/10 02:11:19;;;;;;;7.35;3.58;;;;;;;12.88;57.72;101687.56;1769528;81;21549;-84
2021/09/10 02:13:46;;;;;;;8.10;3.77;;;;;;;12.84;57.85;101689.97;1769760;81;21495;-84
2021/09/10 02:16:15;;;;;;;10.30;3.95;;;;;;;12.81;57.83;101687.55;1769486;81;21413;-84
2021/09/10 02:18:43;;;;;;;7.75;3.58;;;;;;;12.77;57.95;101689.11;1769614;81;21523;-85
2021/09/10 02:21:09;;;;;;;7.50;4.05;;;;;;;12.72;58.23;101688.94;1769396;81;21095;-86
2021/09/10 02:23:36;;;;;;;7.62;4.22;;;;;;;12.68;58.43;101686.12;1769396;80;21036;-85
2021/09/10 02:26:03;;;;;;;6.12;3.83;;;;;;;12.63;58.67;101684.73;1769411;81;21407;-84
2021/09/10 02:28:31;;;;;;;6.67;3.90;;;;;;;12.57;58.82;101679.88;1769518;81;20913;-84
2021/09/10 02:30:58;;;;;;;9.50;4.53;;;;;;;12.54;59.01;101683.97;1769545;81;20972;-84
2021/09/10 02:33:24;;;;;;;12.53;4.87;;;;;;;12.49;59.54;101679.47;1769544;80;21039;-86
2021/09/10 02:35:55;;;;;;;17.45;4.97;;;;;;;12.45;59.35;101686.61;1769710;81;20920;-87
2021/09/10 02:38:23;;;;;;;14.45;4.55;;;;;;;12.43;58.88;101684.58;1769578;81;20979;-85
2021/09/10 02:40:52;;;;;;;11.18;4.05;;;;;;;12.41;58.46;101685.59;1769798;81;20928;-86
2021/09/10 02:43:19;;;;;;;11.68;4.22;;;;;;;12.41;58.15;101686.89;1772278;81;21490;-87
2021/09/10 02:45:46;;;;;;;10.25;3.98;;;;;;;12.40;57.83;101683.45;1772827;81;21120;-86
2021/09/10 02:48:22;;;;;;;9.00;3.67;;;;;;;12.39;57.63;101684.36;1773771;80;20880;-90
2021/09/10 02:50:49;;;;;;;8.43;3.65;;;;;;;12.38;57.55;101684.47;1773400;80;21459;-86
2021/09/10 02:53:17;;;;;;;8.58;3.83;;;;;;;12.37;57.29;101684.92;1764769;81;21764;-88
2021/09/10 02:55:45;;;;;;;15.15;4.15;;;;;;;12.35;57.17;101689.36;1765328;81;21015;-84
2021/09/10 02:58:14;;;;;;;11.00;4.42;;;;;;;12.34;57.12;101692.91;1764943;81;21103;-84
2021/09/10 03:00:43;;;;;;;11.68;3.90;;;;;;;12.31;57.19;101687.88;1764624;81;21592;-84
2021/09/10 03:03:10;;;;;;;13.62;4.17;;;;;;;12.32;57.46;101692.14;1764590;81;21456;-83
2021/09/10 03:05:37;;;;;;;17.12;5.00;;;;;;;12.31;57.29;101698.30;1764737;81;21535;-87
2021/09/10 03:08:04;;;;;;;24.45;9.93;;;;;;;12.29;57.22;101691.47;1764715;81;20948;-84
2021/09/10 03:10:32;;;;;;;18.85;8.70;;;;;;;12.28;57.07;101695.86;1764696;81;20881;-84
2021/09/10 03:13:00;;;;;;;20.43;7.78;;;;;;;12.26;57.04;101691.64;1764814;81;21424;-85
2021/09/10 03:15:27;;;;;;;16.17;6.92;;;;;;;12.25;57.05;101685.63;1764932;81;20951;-87
2021/09/10 03:17:56;;;;;;;15.18;5.50;;;;;;;12.23;56.96;101683.55;1764879;81;21522;-86
2021/09/10 03:20:22;;;;;;;9.53;4.47;;;;;;;12.21;56.88;101678.91;1764657;81;20991;-86
2021/09/10 03:22:52;;;;;;;14.20;5.53;;;;;;;12.20;56.97;101685.03;1764766;81;20920;-85
2021/09/10 03:25:19;;;;;;;15.88;4.75;;;;;;;12.16;56.94;101692.17;1764566;81;21527;-84
2021/09/10 03:27:46;;;;;;;9.68;3.98;;;;;;;12.15;56.94;101694.87;1764630;81;20920;-82
2021/09/10 03:30:13;;;;;;;18.40;5.00;;;;;;;12.13;57.36;101700.61;1764672;81;20965;-83
2021/09/10 03:32:44;;;;;;;15.85;4.97;;;;;;;12.12;57.71;101699.77;1764511;81;20988;-84
2021/09/10 03:35:10;;;;;;;10.03;4.62;;;;;;;12.11;57.90;101708.52;1764707;81;21825;-84
2021/09/10 03:37:37;;;;;;;11.88;4.83;;;;;;;12.11;57.84;101706.38;1764436;81;21539;-84
2021/09/10 03:40:06;;;;;;;13.85;5.42;;;;;;;12.13;58.02;101709.26;1764433;81;20976;-84
2021/09/10 03:42:35;;;;;;;15.55;6.35;;;;;;;12.14;58.04;101703.59;1766405;81;20951;-83
2021/09/10 03:45:04;;;;;;;13.30;5.15;;;;;;;12.15;58.21;101707.42;1769553;81;20940;-83
2021/09/10 03:47:33;;;;;;;16.02;5.70;;;;;;;12.16;58.31;101708.23;1740085;81;21153;-84
2021/09/10 03:49:59;;;;;;;11.70;5.78;;;;;;;12.16;58.48;101712.14;1769387;81;20967;-83
2021/09/10 03:52:26;;;;;;;12.98;5.92;;;;;;;12.16;58.67;101714.74;1769194;81;20960;-84
2021/09/10 03:54:52;;;;;;;14.43;5.65;;;;;;;12.16;58.79;101710.84;1769165;80;21538;-84
2021/09/10 03:57:19;;;;;;;15.45;6.00;;;;;;;12.14;58.83;101716.15;1769473;81;20948;-84
2021/09/10 03:59:46;;;;;;;19.65;5.90;;;;;;;12.15;58.80;101713.94;1769449;81;21990;-84
2021/09/10 04:02:15;;;;;;;17.10;5.28;;;;;;;12.16;58.96;101712.98;1769374;81;20889;-84
2021/09/10 04:04:42;;;;;;;26.73;6.22;;;;;;;12.14;58.94;101710.10;1769395;81;20865;-84
2021/09/10 04:07:11;;;;;;;17.12;6.08;;;;;;;12.13;58.99;101709.26;1769292;81;20980;-84
2021/09/10 04:09:39;;;;;;;16.82;5.37;;;;;;;12.12;59.87;101716.67;1769630;80;20929;-84
2021/09/10 04:12:08;;;;;;;20.10;6.10;;;;;;;12.09;60.20;101710.34;1769475;81;20976;-84
2021/09/10 04:14:35;;;;;;;19.70;6.80;;;;;;;12.10;60.09;101707.28;1769463;81;20975;-83
2021/09/10 04:17:01;;;;;;;21.17;6.33;;;;;;;12.07;60.39;101702.25;1769460;81;21463;-84
2021/09/10 04:19:30;;;;;;;12.60;6.05;;;;;;;12.04;60.65;101707.17;1769361;81;20976;-86
2021/09/10 04:21:57;;;;;;;22.70;6.97;;;;;;;12.02;60.83;101697.33;1769462;81;20996;-85
2021/09/10 04:24:25;;;;;;;21.20;7.20;;;;;;;12.02;61.10;101695.18;1769705;81;20897;-83
2021/09/10 04:26:52;;;;;;;27.20;6.62;;;;;;;12.01;61.06;101694.80;1769801;81;21435;-84
2021/09/10 04:29:20;;;;;;;18.77;6.37;;;;;;;11.99;61.11;101690.99;1769668;81;21510;-86
2021/09/10 04:31:48;;;;;;;15.28;5.45;;;;;;;11.99;61.09;101690.15;1769589;81;21476;-83
2021/09/10 04:34:15;;;;;;;20.12;6.15;;;;;;;12.02;60.60;101693.42;1769948;81;20889;-87
2021/09/10 04:36:43;;;;;;;19.10;5.90;;;;;;;12.06;60.18;101695.39;1769711;81;20992;-85
2021/09/10 04:39:12;;;;;;;20.08;6.65;;;;;;;12.09;59.75;101692.62;1769439;81;20992;-85
2021/09/10 04:41:38;;;;;;;14.68;6.85;;;;;;;12.11;59.33;101694.20;1770256;80;21482;-85
2021/09/10 04:44:05;;;;;;;24.67;6.78;;;;;;;12.13;59.18;101696.70;1760179;81;21417;-86
2021/09/10 04:46:31;;;;;;;15.18;6.72;;;;;;;12.18;58.95;101701.20;1759412;81;21091;-89
2021/09/10 04:49:00;;;;;;;16.07;5.92;;;;;;;12.24;58.70;101698.25;1760018;81;20972;-87
2021/09/10 04:51:29;;;;;;;17.50;6.92;;;;;;;12.31;58.29;101691.78;1759873;81;21463;-86
2021/09/10 04:53:57;;;;;;;14.43;5.95;;;;;;;12.38;58.20;101696.99;1759448;81;21023;-87
2021/09/10 04:56:24;;;;;;;14.93;6.72;;;;;;;12.45;57.98;101693.12;1759800;81;21009;-88
2021/09/10 04:58:53;;;;;;;25.80;7.03;;;;;;;12.53;57.83;101694.84;1759350;81;21507;-86
2021/09/10 05:01:25;;;;;;;23.07;6.22;;;;;;;12.60;57.44;101689.62;1759369;81;22043;-87
2021/09/10 05:03:53;;;;;;;27.27;7.72;;;;;;;12.70;57.32;101688.63;1759547;81;20937;-89
2021/09/10 05:06:21;;;;;;;31.12;7.58;;;;;;;12.76;57.38;101681.78;1759767;81;20920;-87
2021/09/10 05:08:49;;;;;;;23.05;6.87;;;;;;;12.80;57.45;101678.05;1759515;81;21567;-87
2021/09/10 05:11:17;;;;;;;27.73;7.12;;;;;;;12.84;57.89;101677.41;1759611;81;20953;-83
2021/09/10 05:13:46;;;;;;;31.60;6.80;;;;;;;12.89;57.96;101676.69;1760503;81;21120;-81
2021/09/10 05:16:15;;;;;;;35.03;6.95;;;;;;;12.93;57.90;101672.94;1759800;81;20853;-91
2021/09/10 05:18:56;;;;;;;24.15;8.25;;;;;;;13.01;57.47;101673.34;1760226;81;20960;-84
2021/09/10 05:21:29;;;;;;;30.10;10.08;;;;;;;13.06;57.35;101676.03;1754522;81;21343;-89
2021/09/10 05:24:02;;;;;;;25.48;8.08;;;;;;;13.11;57.78;101681.02;1754778;81;20991;-82
2021/09/10 05:26:36;;;;;;;20.35;7.87;;;;;;;13.17;57.38;101676.27;1759434;81;21464;-85
2021/09/10 05:29:05;;;;;;;39.13;10.40;;;;;;;13.23;57.31;101673.75;1759775;81;20906;-85
2021/09/10 05:31:33;;;;;;;38.30;11.65;;;;;;;13.37;56.58;101675.52;1759642;81;20916;-84
2021/09/10 05:34:00;;;;;;;38.50;10.75;;;;;;;13.48;56.63;101669.16;1759106;81;21489;-83
2021/09/10 05:36:39;;;;;;;37.75;9.35;;;;;;;13.54;56.92;101669.62;1760423;81;20984;-84
2021/09/10 05:39:08;;;;;;;53.13;12.18;;;;;;;13.64;56.78;101663.36;1758802;81;20936;-83
2021/09/10 05:41:35;;;;;;;43.00;10.25;;;;;;;13.73;56.51;101664.08;1759388;81;21151;-88
2021/09/10 05:44:04;;;;;;;69.77;27.70;;;;;;;13.79;56.39;101659.31;1744636;80;20885;-86
2021/09/10 05:46:30;;;;;;;58.68;20.62;;;;;;;13.88;56.66;101660.98;1729088;82;21487;-87
2021/09/10 05:48:58;;;;;;;49.75;16.02;;;;;;;13.95;56.33;101657.02;1727820;83;21026;-88
2021/09/10 05:51:25;;;;;;;45.33;13.75;;;;;;;14.03;56.24;101660.84;1728053;83;21128;-85
2021/09/10 05:53:56;;;;;;;40.88;12.93;;;;;;;14.11;56.28;101659.02;1727829;83;21503;-85
2021/09/10 05:56:23;;;;;;;36.00;13.93;;;;;;;14.20;56.20;101660.56;1727557;81;21024;-83
2021/09/10 05:58:55;;;;;;;42.23;14.70;;;;;;;14.31;55.98;101660.71;1717939;82;21526;-91
2021/09/10 06:01:27;;;;;;;;;;;;;;;14.42;55.73;101663.97;1713778;81;21004;-86
2021/09/10 06:03:57;;;;;;;38.20;17.42;;;;;;;14.55;55.22;101660.87;1711830;83;20214;-86
2021/09/10 06:06:25;;;;;;;43.25;16.85;;;;;;;14.70;54.79;101671.63;1698780;83;21108;-85
2021/09/10 06:08:55;;;;;;;38.73;15.60;;;;;;;14.81;54.79;101671.73;1721715;83;21289;-84
2021/09/10 06:11:24;;;;;;;35.63;16.90;;;;;;;14.91;54.64;101674.55;1727737;81;21024;-85
2021/09/10 06:13:52;;;;;;;48.92;24.15;;;;;;;15.01;54.35;101673.45;1728129;83;20909;-86
2021/09/10 06:16:21;;;;;;;49.90;24.12;;;;;;;15.13;53.86;101673.91;1719007;83;20944;-85
2021/09/10 06:18:52;;;;;;;47.35;24.05;;;;;;;15.28;53.52;101676.30;1715481;83;21039;-86
2021/09/10 06:21:19;;;;;;;47.08;19.07;;;;;;;15.44;53.23;101681.33;1685462;83;20955;-85
2021/09/10 06:23:46;;;;;;;49.95;18.00;;;;;;;15.62;53.53;101686.59;1653873;86;21564;-86
2021/09/10 06:26:15;;;;;;;42.85;11.22;;;;;;;15.76;54.01;101682.51;1656234;86;21016;-85
2021/09/10 06:28:45;;;;;;;43.38;10.63;;;;;;;15.92;53.98;101680.97;1656005;85;21141;-85
2021/09/10 06:31:14;;;;;;;33.20;9.40;;;;;;;16.07;54.03;101680.31;1657177;85;21083;-87
2021/09/10 06:33:50;;;;;;;35.33;10.05;;;;;;;16.22;53.27;101680.50;1655390;85;21028;-84
2021/09/10 06:36:17;;;;;;;33.00;9.60;;;;;;;16.38;53.12;101678.42;1653595;86;21087;-82
2021/09/10 06:38:45;;;;;;;30.97;9.88;;;;;;;16.49;53.13;101678.94;1654392;85;21055;-83
2021/09/10 06:41:12;;;;;;;30.25;9.90;;;;;;;16.58;53.16;101674.34;1653935;85;21108;-81
2021/09/10 06:43:41;;;;;;;37.98;9.45;;;;;;;16.68;53.12;101668.78;1650269;83;21665;-82
2021/09/10 06:46:08;;;;;;;35.65;9.23;;;;;;;16.77;52.64;101672.85;1647060;86;21190;-84
2021/09/10 06:48:39;;;;;;;27.48;9.25;;;;;;;16.87;52.02;101670.37;1639991;87;21631;-84
2021/09/10 06:51:08;;;;;;;36.70;9.80;;;;;;;16.98;51.73;101664.28;1639711;86;21654;-82
2021/09/10 06:53:38;;;;;;;24.43;8.50;;;;;;;17.07;51.54;101666.22;1639085;87;22302;-82
2021/09/10 06:56:07;;;;;;;14.80;7.20;;;;;;;17.15;51.64;101665.14;1639185;86;22075;-83
2021/09/10 06:58:35;;;;;;;25.17;8.38;;;;;;;17.24;51.70;101670.50;1630806;86;21120;-82
2021/09/10 07:01:03;;;;;;;33.55;8.40;;;;;;;17.32;51.60;101669.91;1672448;84;21139;-82
2021/09/10 07:03:30;;;;;;;22.32;7.33;;;;;;;17.38;51.52;101665.50;1656544;85;21044;-82
2021/09/10 07:05:57;;;;;;;25.12;7.42;;;;;;;17.48;51.31;101669.07;1659748;86;21794;-83
2021/09/10 07:08:25;;;;;;;27.70;7.17;;;;;;;17.55;51.07;101671.58;1642476;86;47940;-83
2021/09/10 07:10:54;;;;;;;26.33;8.05;;;;;;;17.65;51.23;101664.64;1636281;86;20958;-84
2021/09/10 07:13:21;;;;;;;27.42;12.05;;;;;;;17.75;52.00;101667.37;1662813;86;21025;-84
2021/09/10 07:15:49;;;;;;;42.75;12.88;;;;;;;17.86;52.74;101663.41;1652559;86;21852;-84
2021/09/10 07:18:16;;;;;;;38.88;11.45;;;;;;;17.97;52.65;101670.77;1651469;85;21119;-84
2021/09/10 07:20:45;;;;;;;52.85;18.52;;;;;;;18.10;53.82;101671.08;1667071;86;20988;-82
2021/09/10 07:23:12;;;;;;;65.90;26.23;;;;;;;18.21;53.72;101671.05;1641927;86;20922;-84
2021/09/10 07:25:45;;;;;;;66.28;25.37;;;;;;;18.31;53.22;101669.34;1641003;86;21040;-87
2021/09/10 07:28:12;;;;;;;69.00;28.10;;;;;;;18.43;51.72;101668.33;1662961;85;21071;-86
2021/09/10 07:30:40;;;;;;;66.55;25.50;;;;;;;18.56;50.91;101668.17;1653997;85;21172;-86
2021/09/10 07:33:08;;;;;;;60.20;19.35;;;;;;;18.68;50.54;101668.45;1648109;85;21080;-83
2021/09/10 07:35:35;;;;;;;45.85;17.42;;;;;;;18.80;50.27;101666.09;1643082;86;21050;-84
2021/09/10 07:38:15;;;;;;;53.70;18.55;;;;;;;18.92;50.32;101663.77;1647728;86;21460;-84
2021/09/10 07:41:03;;;;;;;34.40;13.18;;;;;;;19.06;50.51;101666.51;1643039;86;20986;-83
2021/09/10 07:44:00;;;;;;;30.27;10.35;;;;;;;19.21;48.39;101671.28;1655824;84;21116;-83
2021/09/10 07:46:24;;;;;;;25.32;10.03;;;;;;;19.38;47.48;101672.46;1672350;84;20903;-84
2021/09/10 07:48:53;;;;;;;22.35;9.23;;;;;;;19.59;46.23;101675.91;1677588;84;21041;-82
2021/09/10 07:51:20;;;;;;;28.60;9.90;;;;;;;19.77;45.31;101674.27;1669018;85;21644;-82
2021/09/10 07:53:46;;;;;;;15.48;8.45;;;;;;;19.98;44.50;101674.98;1669660;84;21128;-83
2021/09/10 07:56:14;;;;;;;21.97;9.18;;;;;;;20.23;43.68;101669.65;1682747;84;21136;-83
2021/09/10 07:58:42;;;;;;;21.65;7.87;;;;;;;20.53;44.17;101670.85;1675204;84;21214;-82
2021/09/10 08:01:12;;;;;;;17.02;6.80;;;;;;;20.82;42.95;101664.20;1695155;84;21160;-81
2021/09/10 08:03:38;;;;;;;12.00;6.67;;;;;;;21.08;39.95;101663.08;1696036;84;21598;-83
2021/09/10 08:06:05;;;;;;;11.55;7.17;;;;;;;21.32;39.05;101657.30;1692266;84;21434;-82
2021/09/10 08:08:33;;;;;;;19.10;5.83;;;;;;;21.55;37.99;101654.61;1689606;84;21182;-84
2021/09/10 08:11:04;;;;;;;18.00;6.90;;;;;;;21.81;38.04;101650.76;1669239;85;20934;-81
2021/09/10 08:13:31;;;;;;;12.88;5.70;;;;;;;22.06;38.13;101646.91;1667709;85;21017;-83
2021/09/10 08:16:00;;;;;;;18.32;6.72;;;;;;;22.33;38.05;101643.83;1675571;84;21071;-82
2021/09/10 08:18:33;;;;;;;12.58;6.00;;;;;;;22.54;37.19;101640.34;1675247;84;21074;-83
2021/09/10 08:21:06;;;;;;;20.80;6.40;;;;;;;22.75;36.98;101645.32;1697891;83;21173;-82
2021/09/10 08:23:35;;;;;;;11.38;5.17;;;;;;;22.90;35.63;101641.10;1697155;84;21115;-84
2021/09/10 08:26:03;;;;;;;12.98;5.28;;;;;;;23.01;34.55;101640.33;1697673;83;21091;-82
2021/09/10 08:28:30;;;;;;;19.77;6.22;;;;;;;23.09;33.88;101640.37;1696238;84;21065;-81
2021/09/10 08:31:06;;;;;;;11.83;5.58;;;;;;;23.20;34.43;101636.11;1676376;84;21033;-87
2021/09/10 08:33:36;;;;;;;24.25;7.47;;;;;;;23.30;33.58;101629.36;1694982;84;21025;-88
2021/09/10 08:36:04;;;;;;;15.38;5.80;;;;;;;23.42;33.63;101633.92;1688971;84;21683;-83
2021/09/10 08:38:32;;;;;;;19.30;6.15;;;;;;;23.55;33.09;101632.94;1681755;84;21108;-82
2021/09/10 08:41:02;;;;;;;16.50;6.62;;;;;;;23.66;32.53;101624.20;1668486;86;21029;-85
2021/09/10 08:43:33;;;;;;;12.37;6.05;;;;;;;23.73;32.11;101624.38;1673810;84;21069;-85
2021/09/10 08:46:00;;;;;;;9.88;6.25;;;;;;;23.79;31.88;101623.73;1679529;84;21092;-85
2021/09/10 08:48:32;;;;;;;12.82;5.78;;;;;;;23.86;32.04;101619.44;1677709;84;21564;-84
2021/09/10 08:51:02;;;;;;;;;;;;;;;23.97;32.52;101616.94;1693651;83;21559;-83
2021/09/10 08:53:29;;;;;;;19.95;6.25;;;;;;;24.07;31.94;101618.44;1684679;83;20209;-86
2021/09/10 08:55:57;;;;;;;22.80;6.12;;;;;;;24.15;32.21;101616.33;1673088;85;21097;-83
2021/09/10 08:58:25;;;;;;;16.00;5.40;;;;;;;24.21;31.29;101609.86;1682096;84;21160;-84
2021/09/10 09:00:54;;;;;;;19.95;5.83;;;;;;;24.25;31.02;101606.35;1700045;84;21028;-80
2021/09/10 09:03:21;;;;;;;13.03;5.00;;;;;;;24.25;30.18;101599.72;1681849;83;21028;-83
2021/09/10 09:05:57;;;;;;;18.55;6.22;;;;;;;24.27;30.21;101599.56;1665016;83;21152;-84
2021/09/10 09:08:26;;;;;;;11.50;5.92;;;;;;;24.32;30.47;101593.25;1654923;85;21136;-81
2021/09/10 09:11:06;;;;;;;21.48;6.03;;;;;;;24.37;30.25;101594.92;1680688;85;21033;-83
2021/09/10 09:13:47;;;;;;;29.60;6.15;;;;;;;24.43;30.61;101590.27;1681252;85;21024;-85
2021/09/10 09:16:27;;;;;;;14.40;5.17;;;;;;;24.58;30.12;101591.22;1655111;85;21171;-84
2021/09/10 09:19:01;;;;;;;14.45;4.70;;;;;;;24.75;29.73;101590.19;1681167;84;21587;-82
2021/09/10 09:21:32;;;;;;;13.18;5.00;;;;;;;24.96;29.71;101586.48;1677175;85;21218;-82
2021/09/10 09:24:20;;;;;;;12.45;4.95;;;;;;;25.16;28.90;101585.07;1671760;85;21135;-82
2021/09/10 09:26:49;;;;;;;11.90;4.75;;;;;;;25.33;28.83;101579.17;1671574;85;21001;-83
2021/09/10 09:29:19;;;;;;;13.22;5.15;;;;;;;25.45;27.81;101577.77;1671735;85;21057;-83
2021/09/10 09:31:56;;;;;;;10.55;4.42;;;;;;;25.47;27.36;101573.59;1671228;84;21093;-83
2021/09/10 09:34:48;;;;;;;16.37;6.35;;;;;;;25.41;27.12;101565.83;1672013;85;21092;-84
2021/09/10 09:37:20;;;;;;;;;;;;;;;25.37;27.63;101569.03;1679494;84;21485;-83
2021/09/10 09:39:56;;;;;;;10.88;4.67;;;;;;;25.35;27.77;101567.86;1689265;84;20268;-84
2021/09/10 09:42:32;;;;;;;8.70;4.72;;;;;;;25.41;28.11;101556.52;1682313;84;21089;-83
2021/09/10 09:45:22;;;;;;;14.93;4.97;;;;;;;25.96;27.11;101554.15;1654614;85;21080;-83
2021/09/10 09:47:50;;;;;;;8.00;4.50;;;;;;;27.06;26.05;101560.00;1641255;86;21084;-84
2021/09/10 09:50:37;;;;;;;15.80;5.25;;;;;;;28.41;24.36;101556.34;1640634;87;21798;-81
2021/09/10 09:53:05;;;;;;;6.75;4.03;;;;;;;29.61;22.83;101556.95;1625001;87;21050;-85
2021/09/10 09:55:34;;;;;;;13.13;4.97;;;;;;;30.15;22.01;101555.47;1639472;86;21079;-82
2021/09/10 09:58:04;;;;;;;10.95;4.55;;;;;;;30.61;22.08;101561.25;1641365;87;21732;-83
2021/09/10 10:00:37;;;;;;;15.70;5.15;;;;;;;31.22;21.06;101560.30;1643833;86;21621;-82
2021/09/10 10:03:04;;;;;;;12.45;4.78;;;;;;;31.53;21.04;101560.33;1638603;87;21841;-81
2021/09/10 10:05:32;;;;;;;12.53;5.12;;;;;;;31.77;20.49;101558.73;1641900;87;21103;-82
2021/09/10 10:08:04;;;;;;;17.27;6.12;;;;;;;31.75;20.04;101552.77;1641387;87;21083;-81
2021/09/10 10:10:41;;;;;;;16.67;5.10;;;;;;;31.33;20.29;101548.39;1641258;87;21147;-82
2021/09/10 10:13:08;;;;;;;16.37;5.20;;;;;;;30.86;20.48;101538.89;1646652;86;21119;-82
2021/09/10 10:15:45;;;;;;;8.25;4.35;;;;;;;30.33;21.35;101542.75;1668216;86;21024;-81
2021/09/10 10:18:43;;;;;;;11.75;4.53;;;;;;;29.86;21.45;101541.17;1648924;85;21119;-83
2021/09/10 10:21:11;;;;;;;11.97;5.40;;;;;;;29.43;21.65;101535.33;1668076;86;21039;-82
2021/09/10 10:24:05;;;;;;;18.30;5.78;;;;;;;29.12;22.10;101535.86;1668039;86;21055;-81
2021/09/10 10:26:39;;;;;;;14.47;4.78;;;;;;;28.91;22.46;101536.51;1668275;86;21107;-82
2021/09/10 10:29:15;;;;;;;10.63;4.90;;;;;;;28.65;22.90;101534.04;1659724;86;21140;-81
2021/09/10 10:32:06;;;;;;;13.72;5.12;;;;;;;28.51;22.84;101527.45;1640922;87;21139;-82
2021/09/10 10:34:53;;;;;;;20.80;5.62;;;;;;;28.57;22.69;101527.48;1650356;86;21016;-82
2021/09/10 10:37:40;;;;;;;11.48;5.08;;;;;;;28.51;22.86;101526.94;1667244;86;21149;-82
2021/09/10 10:41:11;;;;;;;;;;;;;;;;;;;;;
2021/09/10 10:43:35;;;;;;;13.75;4.40;;;;;;;28.27;23.39;101526.09;1635093;87;21285;-82
2021/09/10 10:46:07;;;;;;;10.98;4.78;;;;;;;28.18;23.08;101519.23;1673524;85;21560;-80
2021/09/10 10:48:43;;;;;;;13.50;4.45;;;;;;;28.10;23.29;101520.22;1677068;85;21091;-82
2021/09/10 10:51:24;;;;;;;15.28;4.50;;;;;;;27.97;23.39;101521.93;1678972;85;21137;-80
2021/09/10 10:53:58;;;;;;;11.48;5.60;;;;;;;27.85;23.62;101521.65;1677310;84;20947;-82
2021/09/10 10:56:39;;;;;;;16.55;5.03;;;;;;;27.72;23.75;101519.70;1715696;82;21952;-81
2021/09/10 10:59:27;;;;;;;10.58;4.80;;;;;;;27.66;23.92;101522.30;1661106;85;21140;-79
2021/09/10 11:02:25;;;;;;;14.68;4.72;;;;;;;27.53;23.82;101514.18;1736653;81;21035;-82
2021/09/10 11:05:07;;;;;;;9.58;5.50;;;;;;;27.46;24.37;101510.12;1746779;81;20994;-80
2021/09/10 11:07:36;;;;;;;13.65;5.08;;;;;;;27.38;24.27;101513.40;1765591;80;20999;-80
2021/09/10 11:10:18;;;;;;;14.85;5.75;;;;;;;27.35;24.83;101511.91;1767531;81;21127;-79
2021/09/10 11:12:56;;;;;;;19.77;6.10;;;;;;;27.37;24.88;101512.56;1767795;80;21065;-79
2021/09/10 11:15:34;;;;;;;13.53;6.33;;;;;;;27.37;25.14;101517.06;1723615;82;21632;-82
2021/09/10 11:18:10;;;;;;;19.95;5.97;;;;;;;27.34;24.85;101508.95;1750884;81;21568;-80
2021/09/10 11:20:44;;;;;;;11.15;5.45;;;;;;;27.24;24.61;101513.27;1749607;81;21114;-82
2021/09/10 11:23:15;;;;;;;14.50;5.42;;;;;;;27.15;24.92;101514.90;1753252;81;21293;-80
2021/09/10 11:25:50;;;;;;;15.25;5.05;;;;;;;27.06;25.17;101508.84;1759865;81;21259;-80
2021/09/10 11:28:18;;;;;;;13.93;5.42;;;;;;;27.08;25.23;101506.00;1712397;82;21128;-83
2021/09/10 11:30:47;;;;;;;16.57;5.58;;;;;;;27.08;25.18;101506.00;1678133;84;21037;-80
2021/09/10 11:33:22;;;;;;;12.07;4.97;;;;;;;26.99;25.67;101501.30;1700418;84;21105;-86